createdAt,value
2019-05-09T00:01:04.068Z,10.50
2019-05-09T00:03:33.665Z,10.50
2019-05-09T00:06:04.590Z,10.50
2019-05-09T00:08:34.004Z,10.50
2019-05-09T00:11:03.820Z,10.50
2019-05-09T00:13:34.120Z,10.50
2019-05-09T00:16:03.811Z,10.50
2019-05-09T00:18:33.678Z,10.50
2019-05-09T00:21:09.524Z,10.40
2019-05-09T00:23:38.710Z,10.40
2019-05-09T00:26:07.940Z,10.40
2019-05-09T00:28:39.248Z,10.50
2019-05-09T00:31:18.729Z,10.50
2019-05-09T00:33:53.403Z,10.40
2019-05-09T00:36:23.241Z,10.40
2019-05-09T00:38:53.719Z,10.40
2019-05-09T00:41:23.939Z,10.40
2019-05-09T00:43:59.711Z,10.40
2019-05-09T00:46:37.957Z,10.40
2019-05-09T00:49:14.293Z,10.40
2019-05-09T00:51:43.772Z,10.40
2019-05-09T00:54:13.566Z,10.40
2019-05-09T00:56:43.571Z,10.40
2019-05-09T00:59:13.499Z,10.30
2019-05-09T01:01:43.729Z,10.30
2019-05-09T01:04:13.577Z,10.30
2019-05-09T01:06:43.465Z,10.30
2019-05-09T01:09:13.737Z,10.30
2019-05-09T01:11:43.972Z,10.30
2019-05-09T01:14:14.232Z,10.20
2019-05-09T01:16:43.995Z,10.20
2019-05-09T01:19:14.074Z,10.20
2019-05-09T01:21:43.953Z,10.20
2019-05-09T01:24:13.904Z,10.20
2019-05-09T01:26:43.632Z,10.20
2019-05-09T01:29:13.770Z,10.20
2019-05-09T01:31:43.695Z,10.20
2019-05-09T01:34:17.917Z,10.10
2019-05-09T01:37:06.801Z,10.10
2019-05-09T01:39:36.671Z,10.10
2019-05-09T01:42:06.448Z,10.00
2019-05-09T01:44:35.697Z,10.00
2019-05-09T01:47:04.988Z,10.00
2019-05-09T01:49:34.479Z,10.00
2019-05-09T01:52:03.936Z,9.90
2019-05-09T01:54:34.837Z,9.90
2019-05-09T01:57:04.257Z,9.90
2019-05-09T01:59:34.091Z,9.90
2019-05-09T02:02:08.246Z,9.80
2019-05-09T02:04:34.706Z,9.80
2019-05-09T02:07:04.428Z,9.80
2019-05-09T02:09:34.463Z,9.80
2019-05-09T02:12:04.247Z,9.70
2019-05-09T02:14:43.839Z,9.70
2019-05-09T02:17:54.874Z,9.70
2019-05-09T02:20:13.635Z,9.70
2019-05-09T02:22:43.532Z,9.70
2019-05-09T02:25:13.781Z,9.60
2019-05-09T02:27:43.693Z,9.60
2019-05-09T02:30:15.243Z,9.60
2019-05-09T02:32:50.178Z,9.60
2019-05-09T02:35:19.388Z,9.60
2019-05-09T02:37:49.881Z,9.50
2019-05-09T02:40:19.177Z,9.50
2019-05-09T02:42:49.085Z,9.50
2019-05-09T02:45:19.435Z,9.50
2019-05-09T02:47:49.147Z,9.50
2019-05-09T02:50:19.613Z,9.50
2019-05-09T02:52:49.012Z,9.50
2019-05-09T02:55:18.631Z,9.50
2019-05-09T02:57:49.632Z,9.50
2019-05-09T03:00:39.513Z,9.50
2019-05-09T03:03:21.302Z,9.50
2019-05-09T03:05:50.698Z,9.50
2019-05-09T03:08:19.908Z,9.50
2019-05-09T03:10:49.387Z,9.50
2019-05-09T03:13:19.359Z,9.50
2019-05-09T03:15:50.581Z,9.50
2019-05-09T03:18:19.775Z,9.50
2019-05-09T03:21:10.840Z,9.50
2019-05-09T03:23:40.099Z,9.40
2019-05-09T03:26:10.960Z,9.40
2019-05-09T03:29:05.011Z,9.40
2019-05-09T03:31:34.753Z,9.40
2019-05-09T03:34:04.032Z,9.40
2019-05-09T03:36:33.262Z,9.30
2019-05-09T03:39:02.457Z,9.40
2019-05-09T03:41:31.700Z,9.30
2019-05-09T03:44:00.921Z,9.30
2019-05-09T03:46:47.671Z,9.30
2019-05-09T03:49:18.018Z,9.30
2019-05-09T03:51:48.230Z,9.30
2019-05-09T03:54:18.408Z,9.30
2019-05-09T03:56:52.500Z,9.40
2019-05-09T03:59:21.745Z,9.40
2019-05-09T04:01:50.922Z,9.40
2019-05-09T04:04:20.144Z,9.40
2019-05-09T04:06:49.345Z,9.40
2019-05-09T04:09:18.577Z,9.40
2019-05-09T04:11:48.550Z,9.50
2019-05-09T04:14:21.671Z,9.50
2019-05-09T04:16:50.917Z,9.50
2019-05-09T04:19:20.122Z,9.50
2019-05-09T04:21:49.339Z,9.60
2019-05-09T04:24:18.632Z,9.60
2019-05-09T04:26:57.547Z,9.60
2019-05-09T04:29:28.571Z,9.60
2019-05-09T04:31:58.459Z,9.60
2019-05-09T04:34:27.751Z,9.60
2019-05-09T04:36:57.614Z,9.70
2019-05-09T04:39:28.418Z,9.70
2019-05-09T04:42:03.458Z,9.70
2019-05-09T04:44:37.555Z,9.70
2019-05-09T04:47:08.741Z,9.70
2019-05-09T04:49:41.084Z,9.70
2019-05-09T04:52:08.719Z,9.70
2019-05-09T04:54:38.518Z,9.80
2019-05-09T04:57:08.034Z,9.80
2019-05-09T04:59:37.496Z,9.80
2019-05-09T05:02:27.600Z,9.80
2019-05-09T05:04:58.553Z,9.80
2019-05-09T05:07:28.687Z,9.80
2019-05-09T05:09:58.352Z,9.80
2019-05-09T05:12:27.805Z,9.80
2019-05-09T05:14:58.075Z,9.80
2019-05-09T05:17:28.312Z,9.80
2019-05-09T05:19:58.863Z,9.90
2019-05-09T05:22:42.544Z,9.90
2019-05-09T05:25:11.758Z,9.90
2019-05-09T05:27:40.949Z,9.90
2019-05-09T05:30:10.739Z,10.00
2019-05-09T05:32:57.691Z,10.00
2019-05-09T05:35:38.384Z,10.00
2019-05-09T05:38:08.559Z,10.00
2019-05-09T05:40:45.579Z,10.00
2019-05-09T05:43:08.975Z,10.00
2019-05-09T05:45:47.936Z,10.00
2019-05-09T05:48:21.184Z,10.00
2019-05-09T05:50:50.508Z,10.00
2019-05-09T05:53:19.944Z,10.00
2019-05-09T05:55:52.521Z,10.00
2019-05-09T05:58:20.350Z,10.10
2019-05-09T06:00:49.537Z,10.10
2019-05-09T06:03:18.879Z,10.10
2019-05-09T06:05:51.453Z,10.20
2019-05-09T06:08:18.917Z,10.20
2019-05-09T06:10:48.373Z,10.20
2019-05-09T06:13:18.327Z,10.30
2019-05-09T06:15:48.154Z,10.30
2019-05-09T06:18:18.443Z,10.40
2019-05-09T06:20:48.628Z,10.40
2019-05-09T06:23:18.066Z,10.50
2019-05-09T06:25:48.425Z,10.50
2019-05-09T06:28:18.343Z,10.50
2019-05-09T06:30:47.820Z,10.50
2019-05-09T06:33:18.131Z,10.50
2019-05-09T06:35:48.103Z,10.50
2019-05-09T06:38:18.777Z,10.50
2019-05-09T06:40:48.285Z,10.60
2019-05-09T06:43:23.207Z,10.60
2019-05-09T06:46:10.945Z,10.70
2019-05-09T06:48:40.582Z,10.80
2019-05-09T06:51:09.807Z,10.80
2019-05-09T06:53:39.033Z,10.80
2019-05-09T06:56:08.252Z,10.80
2019-05-09T06:58:38.307Z,10.80
2019-05-09T07:01:25.472Z,10.80
2019-05-09T07:03:59.392Z,10.90
2019-05-09T07:06:33.238Z,10.90
2019-05-09T07:09:12.568Z,11.00
2019-05-09T07:11:41.885Z,11.00
2019-05-09T07:14:31.837Z,11.00
2019-05-09T07:16:59.026Z,11.10
2019-05-09T07:19:28.317Z,11.20
2019-05-09T07:22:01.893Z,11.20
2019-05-09T07:24:31.586Z,11.20
2019-05-09T07:27:00.850Z,11.20
2019-05-09T07:29:30.984Z,11.30
2019-05-09T07:32:09.809Z,11.30
2019-05-09T07:34:47.430Z,11.40
2019-05-09T07:37:18.620Z,11.40
2019-05-09T07:39:48.441Z,11.50
2019-05-09T07:42:18.106Z,11.50
2019-05-09T07:44:52.075Z,11.50
2019-05-09T07:47:18.241Z,11.50
2019-05-09T07:49:48.227Z,11.50
2019-05-09T07:52:18.622Z,11.50
2019-05-09T07:54:48.408Z,11.50
2019-05-09T07:57:18.269Z,11.50
2019-05-09T07:59:47.927Z,11.60
2019-05-09T08:02:17.750Z,11.60
2019-05-09T08:04:48.847Z,11.70
2019-05-09T08:07:17.954Z,11.70
2019-05-09T08:09:47.657Z,11.80
2019-05-09T08:12:17.926Z,11.80
2019-05-09T08:15:06.665Z,11.80
2019-05-09T08:17:18.262Z,11.80
2019-05-09T08:19:48.417Z,12.00
2019-05-09T08:22:21.275Z,12.00
2019-05-09T08:24:48.920Z,12.00
2019-05-09T08:27:18.127Z,12.00
2019-05-09T08:29:47.955Z,12.10
2019-05-09T08:32:18.078Z,12.20
2019-05-09T08:34:48.205Z,12.30
2019-05-09T08:37:17.717Z,12.40
2019-05-09T08:39:48.444Z,12.70
2019-05-09T08:42:20.123Z,13.10
2019-05-09T08:44:48.918Z,13.40
2019-05-09T08:47:18.532Z,13.50
2019-05-09T08:49:58.815Z,13.50
2019-05-09T08:52:28.794Z,13.70
2019-05-09T08:54:58.770Z,13.70
2019-05-09T08:57:28.868Z,13.70
2019-05-09T08:59:59.076Z,13.60
2019-05-09T09:02:28.548Z,13.60
2019-05-09T09:04:58.414Z,13.70
2019-05-09T09:07:29.741Z,13.70
2019-05-09T09:09:58.717Z,13.80
2019-05-09T09:12:34.245Z,13.70
2019-05-09T09:14:58.901Z,13.70
2019-05-09T09:17:28.176Z,13.60
2019-05-09T09:19:58.232Z,13.60
2019-05-09T09:22:28.481Z,13.60
2019-05-09T09:24:58.659Z,13.50
2019-05-09T09:27:28.469Z,13.50
2019-05-09T09:29:58.712Z,13.50
2019-05-09T09:32:28.585Z,13.50
2019-05-09T09:34:58.709Z,13.60
2019-05-09T09:37:37.672Z,13.70
2019-05-09T09:39:59.098Z,13.90
2019-05-09T09:42:28.467Z,14.10
2019-05-09T09:44:58.506Z,14.30
2019-05-09T09:47:28.700Z,14.40
2019-05-09T09:50:00.273Z,14.50
2019-05-09T09:52:29.818Z,14.70
2019-05-09T09:54:59.885Z,14.90
2019-05-09T09:57:29.123Z,15.20
2019-05-09T10:00:01.943Z,15.40
2019-05-09T10:02:33.989Z,15.40
2019-05-09T10:05:03.204Z,15.40
2019-05-09T10:07:32.432Z,15.40
2019-05-09T10:10:01.709Z,15.40
2019-05-09T10:12:31.021Z,15.30
2019-05-09T10:15:08.361Z,15.20
2019-05-09T10:17:58.266Z,15.30
2019-05-09T10:20:31.784Z,15.60
2019-05-09T10:23:11.191Z,15.90
2019-05-09T10:25:31.968Z,16.20
2019-05-09T10:28:01.148Z,16.60
2019-05-09T10:30:32.257Z,16.90
2019-05-09T10:33:01.459Z,17.10
2019-05-09T10:35:30.715Z,17.20
2019-05-09T10:37:59.897Z,17.10
2019-05-09T10:40:29.164Z,17.00
2019-05-09T10:43:08.228Z,16.90
2019-05-09T10:46:18.426Z,17.10
2019-05-09T10:48:55.314Z,17.40
2019-05-09T10:51:24.552Z,17.80
2019-05-09T10:53:53.777Z,18.40
2019-05-09T10:56:22.998Z,18.60
2019-05-09T10:58:52.232Z,18.90
2019-05-09T11:01:21.533Z,19.20
2019-05-09T11:03:50.760Z,19.40
2019-05-09T11:06:19.973Z,19.60
2019-05-09T11:08:49.188Z,19.90
2019-05-09T11:11:18.624Z,20.30
2019-05-09T11:13:48.432Z,20.50
2019-05-09T11:16:18.475Z,20.40
2019-05-09T11:18:48.426Z,20.40
2019-05-09T11:21:19.224Z,20.80
2019-05-09T11:23:49.184Z,21.10
2019-05-09T11:26:18.600Z,21.10
2019-05-09T11:28:47.858Z,21.20
2019-05-09T11:31:18.437Z,21.40
2019-05-09T11:33:48.534Z,21.50
2019-05-09T11:36:21.210Z,21.50
2019-05-09T11:38:49.741Z,21.40
2019-05-09T11:41:19.543Z,21.50
2019-05-09T11:43:48.928Z,21.60
2019-05-09T11:46:18.541Z,21.60
2019-05-09T11:48:47.875Z,21.70
2019-05-09T11:51:20.527Z,21.70
2019-05-09T11:53:48.826Z,21.60
2019-05-09T11:56:18.317Z,21.30
2019-05-09T11:58:48.354Z,21.10
2019-05-09T12:01:18.843Z,20.90
2019-05-09T12:03:52.055Z,20.90
2019-05-09T12:06:20.356Z,20.80
2019-05-09T12:08:49.769Z,20.50
2019-05-09T12:11:19.690Z,20.20
2019-05-09T12:13:49.296Z,19.90
2019-05-09T12:16:19.013Z,19.80
2019-05-09T12:18:49.104Z,19.60
2019-05-09T12:21:19.524Z,19.40
2019-05-09T12:23:49.896Z,19.20
2019-05-09T12:26:19.350Z,18.90
2019-05-09T12:28:49.053Z,18.60
2019-05-09T12:31:18.515Z,18.50
2019-05-09T12:33:48.611Z,18.60
2019-05-09T12:36:19.197Z,18.70
2019-05-09T12:38:49.966Z,18.70
2019-05-09T12:41:19.669Z,18.80
2019-05-09T12:43:49.067Z,18.80
2019-05-09T12:46:18.308Z,18.70
2019-05-09T12:48:48.177Z,18.80
2019-05-09T12:51:18.446Z,18.90
2019-05-09T12:53:48.654Z,19.00
2019-05-09T12:56:18.822Z,19.30
2019-05-09T12:58:48.355Z,19.60
2019-05-09T13:01:19.024Z,19.80
2019-05-09T13:03:48.686Z,20.10
2019-05-09T13:06:20.127Z,20.60
2019-05-09T13:08:49.393Z,21.10
2019-05-09T13:11:20.045Z,21.70
2019-05-09T13:13:49.637Z,22.20
2019-05-09T13:16:43.486Z,22.80
2019-05-09T13:19:21.651Z,23.20
2019-05-09T13:21:51.152Z,23.80
2019-05-09T13:24:20.729Z,23.80
2019-05-09T13:26:51.534Z,23.50
2019-05-09T13:29:20.988Z,23.10
2019-05-09T13:31:50.360Z,22.60
2019-05-09T13:34:19.760Z,22.30
2019-05-09T13:36:49.174Z,22.20
2019-05-09T13:39:18.611Z,22.10
2019-05-09T13:41:48.083Z,22.10
2019-05-09T13:44:18.114Z,22.20
2019-05-09T13:46:48.875Z,22.30
2019-05-09T13:49:19.447Z,22.30
2019-05-09T13:51:58.623Z,22.30
2019-05-09T13:54:20.061Z,22.60
2019-05-09T13:56:56.605Z,22.80
2019-05-09T13:59:20.487Z,22.70
2019-05-09T14:01:49.653Z,22.60
2019-05-09T14:04:19.004Z,22.30
2019-05-09T14:06:48.733Z,22.10
2019-05-09T14:09:19.946Z,22.00
2019-05-09T14:11:48.953Z,21.80
2019-05-09T14:14:18.277Z,21.80
2019-05-09T14:16:48.003Z,22.20
2019-05-09T14:19:42.529Z,22.80
2019-05-09T14:21:48.334Z,23.30
2019-05-09T14:24:19.297Z,23.40
2019-05-09T14:26:48.725Z,23.30
2019-05-09T14:29:20.521Z,23.10
2019-05-09T14:31:49.004Z,23.30
2019-05-09T14:34:19.683Z,23.70
2019-05-09T14:36:49.675Z,24.20
2019-05-09T14:39:19.165Z,24.40
2019-05-09T14:41:48.450Z,24.30
2019-05-09T14:44:18.306Z,24.20
2019-05-09T14:46:48.329Z,24.10
2019-05-09T14:49:17.839Z,24.40
2019-05-09T14:51:49.809Z,24.60
2019-05-09T14:54:18.107Z,24.60
2019-05-09T14:56:48.537Z,24.40
2019-05-09T14:59:18.665Z,24.00
2019-05-09T15:01:49.717Z,23.70
2019-05-09T15:04:19.170Z,23.30
2019-05-09T15:06:48.915Z,23.00
2019-05-09T15:09:18.429Z,22.80
2019-05-09T15:11:48.534Z,22.50
2019-05-09T15:14:18.457Z,22.40
2019-05-09T15:16:48.670Z,22.20
2019-05-09T15:19:18.425Z,22.00
2019-05-09T15:21:48.644Z,21.80
2019-05-09T15:24:19.507Z,21.50
2019-05-09T15:26:49.982Z,21.30
2019-05-09T15:29:20.507Z,21.00
2019-05-09T15:31:55.115Z,20.80
2019-05-09T15:34:24.169Z,20.70
2019-05-09T15:36:53.716Z,20.60
2019-05-09T15:39:22.926Z,20.60
2019-05-09T15:41:52.164Z,20.50
2019-05-09T15:44:21.482Z,20.30
2019-05-09T15:46:55.032Z,20.20
2019-05-09T15:49:24.303Z,20.00
2019-05-09T15:51:53.541Z,19.90
2019-05-09T15:54:22.793Z,19.80
2019-05-09T15:56:52.136Z,19.80
2019-05-09T15:59:21.333Z,19.80
2019-05-09T16:01:50.633Z,19.80
2019-05-09T16:04:19.852Z,19.80
2019-05-09T16:06:50.909Z,19.70
2019-05-09T16:09:20.026Z,19.80
2019-05-09T16:11:49.232Z,19.80
2019-05-09T16:14:18.680Z,19.70
2019-05-09T16:16:48.063Z,19.70
2019-05-09T16:19:17.296Z,19.80
2019-05-09T16:21:47.792Z,19.70
2019-05-09T16:24:18.874Z,19.70
2019-05-09T16:26:48.768Z,19.70
2019-05-09T16:29:18.252Z,19.70
2019-05-09T16:31:48.223Z,19.60
2019-05-09T16:34:17.959Z,19.60
2019-05-09T16:36:48.032Z,19.60
2019-05-09T16:39:18.056Z,19.50
2019-05-09T16:41:48.443Z,19.50
2019-05-09T16:44:18.538Z,19.40
2019-05-09T16:46:48.612Z,19.30
2019-05-09T16:49:20.043Z,19.10
2019-05-09T16:51:49.025Z,18.90
2019-05-09T16:54:18.413Z,18.80
2019-05-09T16:56:47.556Z,18.60
2019-05-09T16:59:17.890Z,18.60
2019-05-09T17:01:49.995Z,18.50
2019-05-09T17:04:19.111Z,18.40
2019-05-09T17:06:49.680Z,18.30
2019-05-09T17:09:19.270Z,18.20
2019-05-09T17:11:48.623Z,18.10
2019-05-09T17:14:19.315Z,18.10
2019-05-09T17:16:52.201Z,18.10
2019-05-09T17:19:19.712Z,18.10
2019-05-09T17:21:54.783Z,18.10
2019-05-09T17:24:24.104Z,18.10
2019-05-09T17:26:53.319Z,18.10
2019-05-09T17:29:22.548Z,18.10
2019-05-09T17:31:51.826Z,18.10
2019-05-09T17:34:21.044Z,18.00
2019-05-09T17:36:50.241Z,18.00
2019-05-09T17:39:19.489Z,18.00
2019-05-09T17:41:48.692Z,18.00
2019-05-09T17:44:18.575Z,18.00
2019-05-09T17:46:48.137Z,18.00
2019-05-09T17:49:17.592Z,18.00
2019-05-09T17:51:48.233Z,18.00
2019-05-09T17:54:18.297Z,17.90
2019-05-09T17:56:48.399Z,17.90
2019-05-09T17:59:18.453Z,17.80
2019-05-09T18:01:48.343Z,17.80
2019-05-09T18:04:18.091Z,17.70
2019-05-09T18:06:48.961Z,17.60
2019-05-09T18:09:19.084Z,17.50
2019-05-09T18:11:48.449Z,17.50
2019-05-09T18:14:18.539Z,17.40
2019-05-09T18:16:48.040Z,17.40
2019-05-09T18:19:17.906Z,17.30
2019-05-09T18:21:50.932Z,17.30
2019-05-09T18:24:18.105Z,17.20
2019-05-09T18:26:47.525Z,17.10
2019-05-09T18:29:18.097Z,17.00
2019-05-09T18:32:18.560Z,17.00
2019-05-09T18:34:48.629Z,16.90
2019-05-09T18:37:17.986Z,16.90
2019-05-09T18:39:48.438Z,16.80
2019-05-09T18:42:17.970Z,16.80
2019-05-09T18:44:47.684Z,16.70
2019-05-09T18:47:18.502Z,16.70
2019-05-09T18:49:47.845Z,16.70
2019-05-09T18:52:17.128Z,16.60
2019-05-09T18:54:46.338Z,16.60
2019-05-09T18:57:15.664Z,16.50
2019-05-09T18:59:44.894Z,16.50
2019-05-09T19:02:14.159Z,16.40
2019-05-09T19:04:43.378Z,16.40
2019-05-09T19:07:22.019Z,16.30
2019-05-09T19:09:43.764Z,16.30
2019-05-09T19:12:12.967Z,16.20
2019-05-09T19:14:43.449Z,16.20
2019-05-09T19:17:41.019Z,16.20
2019-05-09T19:20:21.193Z,16.10
2019-05-09T19:22:50.516Z,16.10
2019-05-09T19:25:19.722Z,16.00
2019-05-09T19:27:48.960Z,16.00
2019-05-09T19:30:18.380Z,16.00
2019-05-09T19:32:47.570Z,15.90
2019-05-09T19:35:16.815Z,15.90
2019-05-09T19:37:46.016Z,15.80
2019-05-09T19:40:19.983Z,15.80
2019-05-09T19:42:46.304Z,15.80
2019-05-09T19:45:15.929Z,15.80
2019-05-09T19:47:45.122Z,15.70
2019-05-09T19:50:14.644Z,15.70
2019-05-09T19:52:43.924Z,15.60
2019-05-09T19:55:13.230Z,15.60
2019-05-09T19:57:42.531Z,15.60
2019-05-09T20:00:13.237Z,15.60
2019-05-09T20:02:42.583Z,15.50
2019-05-09T20:05:12.500Z,15.50
2019-05-09T20:07:41.692Z,15.50
2019-05-09T20:10:29.064Z,15.50
2019-05-09T20:13:13.827Z,15.50
2019-05-09T20:15:44.124Z,15.40
2019-05-09T20:18:14.115Z,15.40
2019-05-09T20:20:43.318Z,15.40
2019-05-09T20:23:12.561Z,15.30
2019-05-09T20:25:42.555Z,15.30
2019-05-09T20:28:11.795Z,15.30
2019-05-09T20:30:41.026Z,15.20
2019-05-09T20:33:10.211Z,15.20
2019-05-09T20:35:39.638Z,15.20
2019-05-09T20:38:09.031Z,15.20
2019-05-09T20:40:38.844Z,15.10
2019-05-09T20:43:08.233Z,15.10
2019-05-09T20:45:37.657Z,15.10
2019-05-09T20:48:07.062Z,15.00
2019-05-09T20:50:36.475Z,14.90
2019-05-09T20:53:09.526Z,14.90
2019-05-09T20:55:36.913Z,14.80
2019-05-09T20:58:06.303Z,14.70
2019-05-09T21:00:35.719Z,14.70
2019-05-09T21:03:08.061Z,14.60
2019-05-09T21:05:37.250Z,14.60
2019-05-09T21:08:06.616Z,14.50
2019-05-09T21:10:36.019Z,14.50
2019-05-09T21:13:05.424Z,14.50
2019-05-09T21:15:34.823Z,14.50
2019-05-09T21:18:04.298Z,14.50
2019-05-09T21:20:33.686Z,14.40
2019-05-09T21:23:03.072Z,14.40
2019-05-09T21:25:33.408Z,14.40
2019-05-09T21:28:03.185Z,14.30
2019-05-09T21:30:32.585Z,14.20
2019-05-09T21:33:01.952Z,14.10
2019-05-09T21:35:31.262Z,14.00
2019-05-09T21:38:00.483Z,14.00
2019-05-09T21:40:29.685Z,14.00
2019-05-09T21:42:58.909Z,13.90
2019-05-09T21:45:28.147Z,13.90
2019-05-09T21:47:57.330Z,13.80
2019-05-09T21:50:26.564Z,13.80
2019-05-09T21:52:55.772Z,13.70
2019-05-09T21:55:24.970Z,13.70
2019-05-09T21:57:54.186Z,13.70
2019-05-09T22:00:29.108Z,13.60
2019-05-09T22:02:58.323Z,13.60
2019-05-09T22:05:27.525Z,13.60
2019-05-09T22:07:56.727Z,13.60
2019-05-09T22:10:25.960Z,13.60
2019-05-09T22:12:55.237Z,13.60
2019-05-09T22:15:24.540Z,13.50
2019-05-09T22:17:53.748Z,13.50
2019-05-09T22:20:23.073Z,13.50
2019-05-09T22:22:52.354Z,13.40
2019-05-09T22:25:21.595Z,13.40
2019-05-09T22:27:50.777Z,13.40
2019-05-09T22:30:20.657Z,13.40
2019-05-09T22:32:49.885Z,13.30
2019-05-09T22:35:19.125Z,13.30
2019-05-09T22:37:48.304Z,13.30
2019-05-09T22:40:17.624Z,13.30
2019-05-09T22:42:46.877Z,13.30
2019-05-09T22:45:16.201Z,13.30
2019-05-09T22:47:45.388Z,13.30
2019-05-09T22:50:14.586Z,13.40
2019-05-09T22:52:44.767Z,13.40
2019-05-09T22:55:14.072Z,13.40
2019-05-09T22:57:43.284Z,13.50
2019-05-09T23:00:13.440Z,13.50
2019-05-09T23:02:42.637Z,13.40
2019-05-09T23:05:11.868Z,13.40
2019-05-09T23:07:41.113Z,13.30
2019-05-09T23:10:10.342Z,13.30
2019-05-09T23:12:39.568Z,13.30
2019-05-09T23:15:10.662Z,13.20
2019-05-09T23:17:39.899Z,13.30
2019-05-09T23:20:14.008Z,13.20
2019-05-09T23:22:43.338Z,13.20
2019-05-09T23:25:12.592Z,13.20
2019-05-09T23:27:41.869Z,13.20
2019-05-09T23:30:12.744Z,13.20
2019-05-09T23:32:44.400Z,13.20
2019-05-09T23:35:13.781Z,13.20
2019-05-09T23:37:43.122Z,13.30
2019-05-09T23:40:12.758Z,13.30
2019-05-09T23:42:41.980Z,13.30
2019-05-09T23:45:11.373Z,13.30
2019-05-09T23:47:40.607Z,13.30
2019-05-09T23:50:09.884Z,13.20
2019-05-09T23:52:39.172Z,13.20
2019-05-09T23:55:26.389Z,13.20
2019-05-09T23:58:13.796Z,13.20
